createdAt,value
2022-08-09T00:00:04.202Z,19.11
2022-08-09T00:02:34.206Z,18.92
2022-08-09T00:06:15.620Z,19.08
2022-08-09T00:07:48.945Z,19.07
2022-08-09T00:10:21.038Z,18.88
2022-08-09T00:12:51.615Z,19.02
2022-08-09T00:15:26.644Z,18.92
2022-08-09T00:18:11.185Z,18.94
2022-08-09T00:20:42.293Z,18.87
2022-08-09T00:23:56.242Z,18.74
2022-08-09T00:26:08.172Z,18.75
2022-08-09T00:28:39.609Z,18.61
2022-08-09T00:31:30.720Z,18.67
2022-08-09T00:33:55.254Z,18.51
2022-08-09T00:36:29.779Z,18.29
2022-08-09T00:38:58.477Z,18.48
2022-08-09T00:44:18.280Z,18.35
2022-08-09T00:44:19.182Z,18.42
2022-08-09T00:46:57.830Z,18.30
2022-08-09T00:49:31.321Z,18.13
2022-08-09T00:52:02.131Z,18.10
2022-08-09T00:54:36.372Z,18.16
2022-08-09T00:57:08.910Z,18.15
2022-08-09T00:59:41.650Z,18.08
2022-08-09T01:02:27.312Z,18.00
2022-08-09T01:05:23.255Z,17.99
2022-08-09T01:08:34.840Z,17.94
2022-08-09T01:11:14.963Z,17.89
2022-08-09T01:14:04.411Z,17.81
2022-08-09T01:16:37.147Z,17.73
2022-08-09T01:19:39.684Z,17.70
2022-08-09T01:22:40.729Z,17.66
2022-08-09T01:25:19.033Z,17.62
2022-08-09T01:27:51.352Z,17.41
2022-08-09T01:30:28.730Z,17.50
2022-08-09T01:33:03.325Z,17.50
2022-08-09T01:35:38.413Z,17.38
2022-08-09T01:38:14.978Z,17.33
2022-08-09T01:41:05.208Z,17.31
2022-08-09T01:43:50.082Z,17.27
2022-08-09T01:46:31.628Z,17.20
2022-08-09T01:49:10.195Z,17.14
2022-08-09T01:51:42.896Z,17.06
2022-08-09T01:54:13.615Z,17.05
2022-08-09T01:56:47.093Z,16.82
2022-08-09T01:59:19.759Z,16.98
2022-08-09T02:01:59.088Z,16.87
2022-08-09T02:04:29.558Z,16.92
2022-08-09T02:07:18.447Z,16.88
2022-08-09T02:10:30.162Z,16.86
2022-08-09T02:13:01.013Z,16.85
2022-08-09T02:15:48.864Z,16.83
2022-08-09T02:18:19.726Z,16.63
2022-08-09T02:20:54.440Z,16.62
2022-08-09T02:23:39.963Z,16.73
2022-08-09T02:26:25.281Z,16.70
2022-08-09T02:28:58.096Z,16.63
2022-08-09T02:31:37.734Z,16.54
2022-08-09T02:34:13.093Z,16.55
2022-08-09T02:36:52.685Z,16.54
2022-08-09T02:39:34.059Z,16.44
2022-08-09T02:42:16.588Z,16.46
2022-08-09T02:44:50.436Z,16.40
2022-08-09T02:47:19.969Z,16.26
2022-08-09T02:50:01.522Z,16.30
2022-08-09T02:52:36.472Z,16.30
2022-08-09T02:55:20.821Z,16.23
2022-08-09T02:58:00.158Z,16.06
2022-08-09T03:00:39.529Z,16.14
2022-08-09T03:03:21.432Z,16.14
2022-08-09T03:05:50.498Z,15.99
2022-08-09T03:08:24.237Z,16.04
2022-08-09T03:10:54.287Z,15.95
2022-08-09T03:13:22.791Z,15.94
2022-08-09T03:16:06.353Z,15.91
2022-08-09T03:18:35.500Z,15.90
2022-08-09T03:21:06.468Z,15.88
2022-08-09T03:23:33.451Z,15.79
2022-08-09T03:26:03.555Z,15.73
2022-08-09T03:28:33.700Z,15.66
2022-08-09T03:31:04.226Z,15.69
2022-08-09T03:33:54.395Z,15.65
2022-08-09T03:36:22.339Z,15.60
2022-08-09T03:38:56.395Z,15.54
2022-08-09T03:41:29.708Z,15.53
2022-08-09T03:44:09.951Z,15.46
2022-08-09T03:46:39.090Z,15.29
2022-08-09T03:49:07.761Z,15.36
2022-08-09T03:51:55.979Z,15.30
2022-08-09T03:54:31.102Z,15.02
2022-08-09T03:57:01.528Z,15.20
2022-08-09T03:59:53.848Z,15.17
2022-08-09T04:02:19.937Z,15.13
2022-08-09T04:04:55.473Z,15.04
2022-08-09T04:07:22.015Z,15.00
2022-08-09T04:10:00.593Z,15.00
2022-08-09T04:12:44.265Z,14.95
2022-08-09T04:15:29.328Z,14.90
2022-08-09T04:17:58.139Z,14.77
2022-08-09T04:20:24.802Z,14.83
2022-08-09T04:22:52.742Z,14.82
2022-08-09T04:25:19.314Z,14.78
2022-08-09T04:27:49.191Z,14.67
2022-08-09T04:30:23.521Z,14.70
2022-08-09T04:32:54.038Z,14.69
2022-08-09T04:35:21.712Z,14.54
2022-08-09T04:37:49.840Z,14.55
2022-08-09T04:40:28.723Z,14.61
2022-08-09T04:43:03.609Z,14.60
2022-08-09T04:45:31.092Z,14.58
2022-08-09T04:48:06.686Z,14.52
2022-08-09T04:50:38.175Z,14.54
2022-08-09T04:53:12.995Z,14.53
2022-08-09T04:55:58.875Z,14.54
2022-08-09T04:58:31.835Z,14.52
2022-08-09T05:01:00.406Z,14.53
2022-08-09T05:03:39.941Z,14.51
2022-08-09T05:06:09.010Z,14.28
2022-08-09T05:08:35.686Z,14.51
2022-08-09T05:11:03.823Z,14.50
2022-08-09T05:13:34.085Z,14.42
2022-08-09T05:16:06.371Z,14.52
2022-08-09T05:18:37.863Z,14.53
2022-08-09T05:21:22.942Z,14.61
2022-08-09T05:23:59.504Z,14.46
2022-08-09T05:26:33.912Z,14.62
2022-08-09T05:29:04.777Z,14.77
2022-08-09T05:31:44.979Z,14.77
2022-08-09T05:34:16.683Z,14.84
2022-08-09T05:36:47.271Z,14.62
2022-08-09T05:39:28.549Z,14.78
2022-08-09T05:41:56.756Z,14.98
2022-08-09T05:44:32.814Z,14.95
2022-08-09T05:47:01.453Z,15.16
2022-08-09T05:50:09.039Z,15.33
2022-08-09T05:52:19.302Z,15.64
2022-08-09T05:54:46.736Z,15.91
2022-08-09T05:57:17.638Z,16.25
2022-08-09T05:59:46.059Z,16.57
2022-08-09T06:02:17.017Z,16.93
2022-08-09T06:04:45.930Z,17.23
2022-08-09T06:07:21.714Z,17.27
2022-08-09T06:10:01.811Z,17.67
2022-08-09T06:12:30.120Z,17.79
2022-08-09T06:15:01.092Z,17.99
2022-08-09T06:17:40.096Z,17.95
2022-08-09T06:20:08.276Z,17.98
2022-08-09T06:22:35.631Z,17.84
2022-08-09T06:25:02.917Z,17.92
2022-08-09T06:27:42.513Z,17.80
2022-08-09T06:30:16.206Z,18.24
2022-08-09T06:33:13.145Z,18.43
2022-08-09T06:35:56.441Z,18.61
2022-08-09T06:38:17.915Z,18.88
2022-08-09T06:40:45.934Z,19.10
2022-08-09T06:43:13.663Z,19.21
2022-08-09T06:46:07.908Z,19.39
2022-08-09T06:48:30.341Z,19.67
2022-08-09T06:50:57.893Z,19.81
2022-08-09T06:53:24.957Z,19.90
2022-08-09T06:55:52.208Z,20.06
2022-08-09T07:00:46.802Z,20.25
2022-08-09T07:01:06.091Z,20.27
2022-08-09T07:03:39.716Z,20.51
2022-08-09T07:06:19.890Z,20.68
2022-08-09T07:08:46.792Z,20.87
2022-08-09T07:11:23.491Z,20.91
2022-08-09T07:14:04.813Z,21.01
2022-08-09T07:16:43.153Z,21.22
2022-08-09T07:19:23.253Z,21.37
2022-08-09T07:21:57.609Z,21.46
2022-08-09T07:24:40.117Z,21.51
2022-08-09T07:27:27.311Z,21.79
2022-08-09T07:29:58.800Z,21.97
2022-08-09T07:32:32.098Z,22.04
2022-08-09T07:35:10.755Z,22.10
2022-08-09T07:37:45.569Z,22.24
2022-08-09T07:40:17.577Z,22.31
2022-08-09T07:42:48.924Z,22.29
2022-08-09T07:45:23.629Z,22.43
2022-08-09T07:48:04.901Z,22.34
2022-08-09T07:50:34.586Z,22.54
2022-08-09T07:53:04.745Z,22.44
2022-08-09T07:55:41.514Z,22.73
2022-08-09T07:58:18.652Z,22.82
2022-08-09T08:00:58.771Z,22.82
2022-08-09T08:03:33.150Z,22.91
2022-08-09T08:06:03.411Z,23.09
2022-08-09T08:09:02.524Z,23.22
2022-08-09T08:12:24.992Z,23.54
2022-08-09T08:14:06.221Z,23.50
2022-08-09T08:16:34.688Z,23.63
2022-08-09T08:19:02.859Z,23.98
2022-08-09T08:21:30.952Z,23.91
2022-08-09T08:24:01.334Z,24.07
2022-08-09T08:26:42.038Z,24.25
2022-08-09T08:29:27.740Z,24.34
2022-08-09T08:32:04.146Z,24.38
2022-08-09T08:34:34.342Z,24.40
2022-08-09T08:37:01.879Z,24.70
2022-08-09T08:39:28.770Z,24.80
2022-08-09T08:41:58.867Z,24.84
2022-08-09T08:44:29.225Z,25.05
2022-08-09T08:47:03.154Z,24.91
2022-08-09T08:49:46.301Z,25.20
2022-08-09T08:52:52.653Z,25.25
2022-08-09T08:55:05.827Z,25.62
2022-08-09T08:57:35.137Z,25.86
2022-08-09T09:00:13.105Z,26.09
2022-08-09T09:02:50.098Z,26.11
2022-08-09T09:05:57.443Z,26.22
2022-08-09T09:08:30.760Z,26.33
2022-08-09T09:11:01.245Z,26.51
2022-08-09T09:13:41.759Z,26.63
2022-08-09T09:16:14.975Z,26.62
2022-08-09T09:18:44.591Z,26.82
2022-08-09T09:21:16.322Z,26.98
2022-08-09T09:23:58.234Z,27.14
2022-08-09T09:26:26.106Z,27.19
2022-08-09T09:29:03.701Z,27.48
2022-08-09T09:32:05.887Z,27.73
2022-08-09T09:34:23.999Z,27.94
2022-08-09T09:36:56.852Z,28.10
2022-08-09T09:39:25.785Z,28.14
2022-08-09T09:42:26.061Z,28.46
2022-08-09T09:45:00.499Z,28.62
2022-08-09T09:47:28.726Z,28.85
2022-08-09T09:50:14.900Z,29.05
2022-08-09T09:52:56.786Z,29.08
2022-08-09T09:55:32.668Z,29.20
2022-08-09T09:58:17.376Z,29.31
2022-08-09T10:00:55.095Z,29.50
2022-08-09T10:03:57.448Z,29.66
2022-08-09T10:06:42.703Z,29.96
2022-08-09T10:09:21.472Z,30.10
2022-08-09T10:12:11.365Z,30.31
2022-08-09T10:14:39.468Z,30.57
2022-08-09T10:17:55.034Z,30.73
2022-08-09T10:19:58.798Z,30.83
2022-08-09T10:22:33.431Z,30.82
2022-08-09T10:25:06.903Z,30.89
2022-08-09T10:27:38.494Z,31.09
2022-08-09T10:30:43.613Z,31.18
2022-08-09T10:32:56.189Z,31.49
2022-08-09T10:35:26.385Z,31.64
2022-08-09T10:37:53.434Z,31.93
2022-08-09T10:40:33.528Z,32.02
2022-08-09T10:43:01.931Z,32.12
2022-08-09T10:45:31.759Z,32.34
2022-08-09T10:48:42.061Z,32.69
2022-08-09T10:51:29.875Z,32.73
2022-08-09T10:54:12.306Z,32.75
2022-08-09T10:56:42.192Z,32.79
2022-08-09T10:59:31.016Z,32.89
2022-08-09T11:03:12.077Z,32.96
2022-08-09T11:05:24.928Z,33.03
2022-08-09T11:07:59.017Z,33.11
2022-08-09T11:10:54.699Z,33.43
2022-08-09T11:13:50.511Z,33.62
2022-08-09T11:16:35.127Z,33.83
2022-08-09T11:19:09.751Z,33.83
2022-08-09T11:22:16.644Z,33.97
2022-08-09T11:25:03.305Z,34.08
2022-08-09T11:28:05.224Z,33.97
2022-08-09T11:30:38.087Z,33.92
2022-08-09T11:33:19.163Z,34.04
2022-08-09T11:35:56.504Z,34.16
2022-08-09T11:38:28.517Z,34.24
2022-08-09T11:41:38.147Z,34.36
2022-08-09T11:44:07.807Z,34.33
2022-08-09T11:46:54.930Z,34.42
2022-08-09T11:50:54.083Z,34.25
2022-08-09T11:53:15.958Z,34.13
2022-08-09T11:55:52.360Z,33.97
2022-08-09T11:58:32.604Z,33.96
2022-08-09T12:01:08.244Z,33.98
2022-08-09T12:03:57.018Z,33.92
2022-08-09T12:06:26.677Z,33.82
2022-08-09T12:09:01.084Z,34.02
2022-08-09T12:11:29.053Z,34.07
2022-08-09T12:14:07.234Z,33.98
2022-08-09T12:16:42.925Z,33.93
2022-08-09T12:19:11.506Z,33.88
2022-08-09T12:21:48.554Z,33.88
2022-08-09T12:24:24.976Z,33.93
2022-08-09T12:29:13.478Z,33.75
2022-08-09T12:30:01.821Z,33.74
2022-08-09T12:32:40.896Z,33.72
2022-08-09T12:35:12.620Z,33.61
2022-08-09T12:37:49.898Z,33.45
2022-08-09T12:40:20.398Z,33.41
2022-08-09T12:42:50.494Z,33.33
2022-08-09T12:45:34.649Z,33.25
2022-08-09T12:48:07.979Z,33.19
2022-08-09T12:50:48.086Z,33.23
2022-08-09T12:53:37.220Z,33.30
2022-08-09T12:56:39.451Z,33.34
2022-08-09T12:59:14.445Z,33.16
2022-08-09T13:01:48.815Z,33.11
2022-08-09T13:04:37.739Z,33.09
2022-08-09T13:07:13.798Z,32.94
2022-08-09T13:09:41.047Z,32.87
2022-08-09T13:12:19.921Z,32.85
2022-08-09T13:14:53.794Z,32.87
2022-08-09T13:17:44.259Z,32.89
2022-08-09T13:20:17.433Z,32.98
2022-08-09T13:23:04.710Z,33.05
2022-08-09T13:25:42.312Z,33.02
2022-08-09T13:28:24.810Z,32.99
2022-08-09T13:32:16.284Z,32.96
2022-08-09T13:33:57.730Z,33.02
2022-08-09T13:36:41.343Z,33.08
2022-08-09T13:41:45.639Z,33.24
2022-08-09T13:42:12.256Z,33.41
2022-08-09T13:44:42.058Z,33.58
2022-08-09T13:47:27.674Z,33.63
2022-08-09T13:50:04.246Z,33.60
2022-08-09T13:52:39.925Z,33.63
2022-08-09T13:55:13.612Z,33.56
2022-08-09T13:57:56.195Z,33.65
2022-08-09T14:00:28.642Z,33.67
2022-08-09T14:03:03.510Z,33.69
2022-08-09T14:05:56.941Z,33.88
2022-08-09T14:08:28.184Z,34.09
2022-08-09T14:10:55.420Z,34.19
2022-08-09T14:14:15.311Z,34.23
2022-08-09T14:16:16.083Z,34.22
2022-08-09T14:18:45.932Z,34.23
2022-08-09T14:21:20.204Z,34.37
2022-08-09T14:23:54.477Z,34.45
2022-08-09T14:26:24.094Z,34.53
2022-08-09T14:28:57.510Z,34.60
2022-08-09T14:31:49.800Z,34.68
2022-08-09T14:34:11.104Z,34.68
2022-08-09T14:36:39.826Z,34.54
2022-08-09T14:39:09.975Z,34.57
2022-08-09T14:41:41.829Z,34.41
2022-08-09T14:44:11.203Z,34.62
2022-08-09T14:47:00.906Z,34.65
2022-08-09T14:49:27.480Z,34.70
2022-08-09T14:51:58.785Z,34.79
2022-08-09T14:54:27.712Z,34.75
2022-08-09T14:56:59.027Z,34.74
2022-08-09T14:59:29.246Z,34.82
2022-08-09T15:01:57.214Z,34.80
2022-08-09T15:04:25.227Z,34.65
2022-08-09T15:06:52.145Z,34.86
2022-08-09T15:10:03.840Z,34.92
2022-08-09T15:12:08.203Z,34.90
2022-08-09T15:14:38.459Z,34.85
2022-08-09T15:17:09.896Z,34.90
2022-08-09T15:19:59.874Z,34.88
2022-08-09T15:22:25.931Z,34.67
2022-08-09T15:24:53.021Z,34.41
2022-08-09T15:27:19.549Z,34.22
2022-08-09T15:30:59.058Z,34.20
2022-08-09T15:32:33.080Z,33.95
2022-08-09T15:35:00.323Z,33.78
2022-08-09T15:37:56.911Z,33.63
2022-08-09T15:40:31.971Z,33.42
2022-08-09T15:42:59.182Z,33.19
2022-08-09T15:45:29.858Z,32.96
2022-08-09T15:48:05.062Z,32.80
2022-08-09T15:50:33.345Z,32.60
2022-08-09T15:53:06.963Z,32.61
2022-08-09T15:55:58.966Z,32.72
2022-08-09T15:58:31.661Z,32.94
2022-08-09T16:00:59.549Z,33.16
2022-08-09T16:03:38.087Z,33.21
2022-08-09T16:06:06.430Z,33.17
2022-08-09T16:08:33.363Z,32.94
2022-08-09T16:11:02.250Z,32.91
2022-08-09T16:14:02.810Z,32.98
2022-08-09T16:16:19.779Z,32.86
2022-08-09T16:18:47.730Z,33.10
2022-08-09T16:21:17.046Z,33.15
2022-08-09T16:23:55.410Z,33.21
2022-08-09T16:26:33.848Z,33.28
2022-08-09T16:29:10.468Z,33.27
2022-08-09T16:32:19.750Z,33.45
2022-08-09T16:34:27.218Z,33.45
2022-08-09T16:36:55.993Z,33.37
2022-08-09T16:39:25.882Z,33.28
2022-08-09T16:42:03.662Z,33.03
2022-08-09T16:44:32.562Z,32.84
2022-08-09T16:47:03.776Z,32.50
2022-08-09T16:50:31.880Z,32.05
2022-08-09T16:52:33.028Z,31.91
2022-08-09T16:54:59.668Z,31.67
2022-08-09T16:57:26.147Z,31.43
2022-08-09T17:00:14.010Z,31.08
2022-08-09T17:02:42.847Z,30.87
2022-08-09T17:05:14.083Z,30.66
2022-08-09T17:08:46.216Z,30.27
2022-08-09T17:10:33.458Z,30.08
2022-08-09T17:13:01.434Z,30.11
2022-08-09T17:15:30.919Z,29.88
2022-08-09T17:18:00.643Z,29.56
2022-08-09T17:20:33.086Z,29.38
2022-08-09T17:23:05.942Z,29.26
2022-08-09T17:25:37.119Z,29.01
2022-08-09T17:28:06.579Z,28.89
2022-08-09T17:30:34.107Z,28.63
2022-08-09T17:33:04.863Z,28.55
2022-08-09T17:35:33.912Z,28.45
2022-08-09T17:38:12.991Z,28.36
2022-08-09T17:40:47.575Z,28.18
2022-08-09T17:43:34.160Z,28.09
2022-08-09T17:46:09.545Z,27.93
2022-08-09T17:48:40.136Z,27.84
2022-08-09T17:51:17.433Z,27.69
2022-08-09T17:53:51.432Z,27.60
2022-08-09T17:56:27.376Z,27.45
2022-08-09T17:58:57.000Z,27.25
2022-08-09T18:01:23.969Z,27.19
2022-08-09T18:03:54.251Z,27.08
2022-08-09T18:06:30.746Z,26.97
2022-08-09T18:08:58.228Z,26.83
2022-08-09T18:11:24.733Z,26.77
2022-08-09T18:13:58.838Z,26.65
2022-08-09T18:16:30.565Z,26.53
2022-08-09T18:19:03.980Z,26.35
2022-08-09T18:21:41.490Z,26.35
2022-08-09T18:24:14.235Z,26.29
2022-08-09T18:26:46.412Z,26.27
2022-08-09T18:30:40.038Z,26.14
2022-08-09T18:32:01.455Z,25.99
2022-08-09T18:34:31.639Z,25.97
2022-08-09T18:36:58.690Z,25.88
2022-08-09T18:39:25.797Z,25.82
2022-08-09T18:42:01.089Z,25.76
2022-08-09T18:44:27.848Z,25.63
2022-08-09T18:47:05.024Z,25.45
2022-08-09T18:49:43.759Z,25.46
2022-08-09T18:52:16.139Z,25.36
2022-08-09T18:54:53.171Z,25.26
2022-08-09T18:57:22.153Z,24.93
2022-08-09T18:59:55.143Z,25.12
2022-08-09T19:02:32.087Z,25.00
2022-08-09T19:05:20.358Z,24.80
2022-08-09T19:08:03.813Z,24.80
2022-08-09T19:10:39.321Z,24.72
2022-08-09T19:13:20.638Z,24.56
2022-08-09T19:16:01.064Z,24.46
2022-08-09T19:18:33.711Z,24.27
2022-08-09T19:21:09.456Z,24.25
2022-08-09T19:24:36.155Z,24.10
2022-08-09T19:26:32.181Z,24.06
2022-08-09T19:29:03.470Z,23.95
2022-08-09T19:31:45.657Z,23.83
2022-08-09T19:34:22.043Z,23.70
2022-08-09T19:36:55.797Z,23.62
2022-08-09T19:39:43.600Z,23.54
2022-08-09T19:42:14.461Z,23.46
2022-08-09T19:44:41.515Z,23.38
2022-08-09T19:47:08.663Z,23.29
2022-08-09T19:50:07.565Z,23.11
2022-08-09T19:52:26.151Z,23.11
2022-08-09T19:54:52.750Z,23.06
2022-08-09T19:57:19.600Z,23.03
2022-08-09T19:59:59.763Z,22.87
2022-08-09T20:04:09.529Z,22.73
2022-08-09T20:05:20.260Z,22.78
2022-08-09T20:07:59.520Z,22.69
2022-08-09T20:10:34.866Z,22.62
2022-08-09T20:13:05.605Z,22.58
2022-08-09T20:16:38.603Z,22.50
2022-08-09T20:18:20.188Z,22.39
2022-08-09T20:20:50.541Z,22.37
2022-08-09T20:23:19.472Z,22.30
2022-08-09T20:25:53.632Z,22.25
2022-08-09T20:28:27.686Z,22.20
2022-08-09T20:31:02.872Z,22.16
2022-08-09T20:33:41.336Z,22.04
2022-08-09T20:36:11.089Z,21.92
2022-08-09T20:41:32.110Z,21.90
2022-08-09T20:44:02.110Z,21.87
2022-08-09T20:46:34.069Z,21.76
2022-08-09T20:49:10.359Z,21.68
2022-08-09T20:51:41.175Z,21.58
2022-08-09T20:54:12.769Z,21.55
2022-08-09T20:56:49.681Z,21.44
2022-08-09T20:59:50.281Z,21.48
2022-08-09T21:02:08.822Z,21.41
2022-08-09T21:05:51.579Z,21.23
2022-08-09T21:07:24.904Z,21.27
2022-08-09T21:10:06.160Z,21.22
2022-08-09T21:12:37.144Z,21.13
2022-08-09T21:15:05.019Z,21.15
2022-08-09T21:18:21.219Z,21.09
2022-08-09T21:20:25.980Z,21.03
2022-08-09T21:22:54.175Z,20.98
2022-08-09T21:25:43.965Z,20.95
2022-08-09T21:28:34.699Z,20.65
2022-08-09T21:31:17.444Z,20.86
2022-08-09T21:33:50.768Z,20.79
2022-08-09T21:36:27.992Z,20.79
2022-08-09T21:38:57.891Z,20.68
2022-08-09T21:42:03.490Z,20.68
2022-08-09T21:44:33.168Z,20.55
2022-08-09T21:47:05.352Z,20.61
2022-08-09T21:49:39.882Z,20.53
2022-08-09T21:52:16.944Z,20.32
2022-08-09T21:55:03.261Z,20.44
2022-08-09T21:57:38.868Z,20.38
2022-08-09T22:00:38.752Z,20.31
2022-08-09T22:03:07.393Z,20.14
2022-08-09T22:05:37.651Z,20.20
2022-08-09T22:08:13.942Z,20.14
2022-08-09T22:11:00.225Z,20.07
2022-08-09T22:13:35.911Z,20.03
2022-08-09T22:16:07.358Z,19.78
2022-08-09T22:18:34.926Z,19.82
2022-08-09T22:21:01.613Z,19.71
2022-08-09T22:23:35.384Z,19.73
2022-08-09T22:26:23.263Z,19.78
2022-08-09T22:29:01.201Z,19.60
2022-08-09T22:31:34.155Z,19.53
2022-08-09T22:34:00.779Z,19.43
2022-08-09T22:36:27.575Z,19.54
2022-08-09T22:38:54.084Z,19.42
2022-08-09T22:41:20.783Z,19.34
2022-08-09T22:44:02.115Z,19.26
2022-08-09T22:48:11.734Z,19.40
2022-08-09T22:49:18.349Z,19.23
2022-08-09T22:51:49.854Z,19.26
2022-08-09T22:54:23.475Z,19.26
2022-08-09T22:56:56.821Z,19.09
2022-08-09T22:59:57.247Z,19.01
2022-08-09T23:02:11.034Z,18.99
2022-08-09T23:04:42.447Z,18.90
2022-08-09T23:08:09.425Z,18.85
2022-08-09T23:10:14.305Z,18.83
2022-08-09T23:12:40.969Z,18.91
2022-08-09T23:15:08.106Z,18.90
2022-08-09T23:17:34.944Z,18.82
2022-08-09T23:20:07.089Z,18.80
2022-08-09T23:22:35.745Z,18.60
2022-08-09T23:25:05.223Z,18.75
2022-08-09T23:27:32.062Z,18.63
2022-08-09T23:29:58.949Z,18.51
2022-08-09T23:32:25.571Z,18.39
2022-08-09T23:34:52.130Z,18.53
2022-08-09T23:37:22.701Z,18.46
2022-08-09T23:39:57.969Z,18.36
2022-08-09T23:42:26.411Z,18.37
2022-08-09T23:44:53.029Z,18.19
2022-08-09T23:47:19.553Z,18.08
2022-08-09T23:49:46.201Z,18.16
2022-08-09T23:52:12.852Z,18.18
2022-08-09T23:54:42.739Z,17.96
2022-08-09T23:57:12.124Z,18.09
2022-08-09T23:59:59.629Z,18.04
